Time;durP1;ratioP1;P1;durP2;ratioP2;P2;SDS_P1;SDS_P2;PMS_P1;PMS_P2;Temp;Humidity;BMP_temperature;BMP_pressure;BME280_temperature;BME280_humidity;BME280_pressure;Samples;Min_cycle;Max_cycle;Signal;HPM_P1;HPM_P2
2021/12/17 00:00:33;;;;;;;22.10;17.17;;;;;;;6.66;100.00;102884.25;5069149;28;20038;-58
2021/12/17 00:06:47;;;;;;;18.85;16.55;;;;;;;6.47;100.00;102860.63;5068119;28;20039;-58
2021/12/17 00:08:28;;;;;;;26.08;17.25;;;;;;;6.46;100.00;102884.97;5046873;28;20856;-58
2021/12/17 00:10:53;;;;;;;21.63;16.73;;;;;;;6.36;100.00;102880.56;5068953;28;20092;-58
2021/12/17 00:13:19;;;;;;;28.00;17.50;;;;;;;6.27;100.00;102886.59;5069310;28;20885;-58
2021/12/17 00:15:45;;;;;;;23.60;16.55;;;;;;;5.90;100.00;102833.25;5069139;28;20085;-58
2021/12/17 00:18:18;;;;;;;24.92;19.50;;;;;;;6.09;100.00;102879.50;5071135;28;20142;-58
2021/12/17 00:40:22;;;;;;;22.00;16.92;;;;;;;5.69;100.00;102874.75;5067946;28;20034;-58
2021/12/17 00:51:02;;;;;;;32.40;21.80;;;;;;;4.83;100.00;102871.16;5072484;28;20042;-58
2021/12/17 00:53:24;;;;;;;40.28;23.88;;;;;;;4.83;100.00;102866.84;5068339;28;20031;-58
2021/12/17 00:55:49;;;;;;;29.27;22.85;;;;;;;4.84;100.00;102868.56;5066521;28;20928;-58
2021/12/17 00:58:14;;;;;;;37.35;23.90;;;;;;;4.88;100.00;102870.34;5068745;28;20039;-58
2021/12/17 01:00:40;;;;;;;32.88;24.05;;;;;;;4.90;100.00;102868.63;5073121;28;20397;-58
2021/12/17 01:03:05;;;;;;;34.10;25.55;;;;;;;4.93;100.00;102860.88;5072557;28;20092;-58
2021/12/17 01:05:31;;;;;;;27.27;21.98;;;;;;;4.86;100.00;102860.78;5069858;28;20027;-58
2021/12/17 01:07:59;;;;;;;26.42;21.45;;;;;;;4.75;100.00;102859.75;5070633;28;20849;-58
2021/12/17 01:10:36;;;;;;;30.90;21.75;;;;;;;4.67;100.00;102853.56;5067498;28;20027;-58
2021/12/17 01:13:02;;;;;;;31.38;22.05;;;;;;;4.61;100.00;102854.38;5068042;28;20034;-58
2021/12/17 01:15:28;;;;;;;28.00;21.13;;;;;;;4.45;100.00;102835.06;5065395;28;20023;-57
2021/12/17 01:17:58;;;;;;;27.20;19.77;;;;;;;4.52;100.00;102849.91;5067938;28;20088;-58
2021/12/17 01:25:32;;;;;;;39.05;28.80;;;;;;;4.77;100.00;102845.91;5067721;28;20036;-57
2021/12/17 01:36:15;;;;;;;43.80;30.02;;;;;;;4.95;100.00;102846.13;5082689;28;20035;-57
2021/12/17 01:44:10;;;;;;;45.25;28.98;;;;;;;5.03;100.00;102847.13;5067717;28;20074;-57
2021/12/17 01:46:37;;;;;;;48.65;28.35;;;;;;;5.02;100.00;102832.34;5067196;28;20085;-57
2021/12/17 02:00:07;;;;;;;39.20;28.17;;;;;;;5.20;100.00;102843.81;5066219;28;20100;-57
2021/12/17 02:02:41;;;;;;;39.13;30.25;;;;;;;5.17;100.00;102834.25;5067690;28;20036;-57
2021/12/17 02:05:06;;;;;;;44.58;29.80;;;;;;;4.73;100.00;102763.38;5050527;28;20776;-57
2021/12/17 02:07:32;;;;;;;43.03;30.50;;;;;;;5.22;100.00;102840.38;5066445;28;20028;-57
2021/12/17 02:19:30;;;;;;;41.20;31.40;;;;;;;5.30;100.00;102833.53;5054737;28;20991;-58
2021/12/17 02:29:14;;;;;;;41.95;32.53;;;;;;;5.36;100.00;102833.59;5069913;28;20046;-58
2021/12/17 02:31:39;;;;;;;51.53;34.17;;;;;;;5.35;100.00;102830.94;5071578;28;20090;-58
2021/12/17 02:34:19;;;;;;;58.67;34.95;;;;;;;5.36;100.00;102837.91;5072906;28;20919;-57
2021/12/17 02:36:45;;;;;;;50.53;32.95;;;;;;;5.36;100.00;102841.41;5070125;28;20035;-57
2021/12/17 02:47:07;;;;;;;49.50;36.63;;;;;;;5.36;100.00;102849.22;5066565;28;20127;-58
2021/12/17 02:49:34;;;;;;;48.70;35.60;;;;;;;5.36;100.00;102853.56;5050519;28;20390;-58
2021/12/17 02:52:03;;;;;;;69.65;38.13;;;;;;;5.39;100.00;102853.59;5060076;28;20032;-58
2021/12/17 02:54:28;;;;;;;53.20;35.33;;;;;;;5.40;100.00;102847.53;5055153;28;20034;-58
2021/12/17 02:56:54;;;;;;;41.13;33.83;;;;;;;5.39;100.00;102846.66;5048762;28;20032;-58
2021/12/17 02:59:19;;;;;;;57.17;37.20;;;;;;;5.38;100.00;102847.50;5047884;28;20038;-58
2021/12/17 03:01:45;;;;;;;51.35;36.20;;;;;;;5.39;100.00;102843.16;5042798;28;20131;-58
2021/12/17 03:04:13;;;;;;;70.93;38.72;;;;;;;5.43;100.00;102853.63;5041079;28;20081;-58
2021/12/17 03:06:41;;;;;;;46.17;35.22;;;;;;;5.43;100.00;102850.16;5061951;28;20032;-59
2021/12/17 03:09:06;;;;;;;52.75;36.38;;;;;;;5.46;100.00;102847.56;5030499;28;20958;-58
2021/12/17 03:11:31;;;;;;;58.08;38.17;;;;;;;5.46;100.00;102847.56;5050353;28;20047;-58
2021/12/17 03:13:57;;;;;;;63.45;36.88;;;;;;;5.45;100.00;102848.44;5049194;28;20801;-58
2021/12/17 03:24:03;;;;;;;49.88;35.28;;;;;;;5.51;100.00;102848.47;5049665;28;20066;-59
2021/12/17 03:26:29;;;;;;;47.25;34.40;;;;;;;5.52;100.00;102852.84;5048612;28;20028;-58
2021/12/17 03:28:57;;;;;;;54.55;37.45;;;;;;;5.54;100.00;102843.31;5049844;28;20032;-58
2021/12/17 03:31:24;;;;;;;50.35;36.03;;;;;;;5.57;100.00;102845.97;5048733;28;20034;-59
2021/12/17 03:33:51;;;;;;;57.20;38.72;;;;;;;5.60;100.00;102848.59;5049314;28;20031;-59
2021/12/17 03:36:19;;;;;;;39.55;34.90;;;;;;;5.66;100.00;102843.44;5049362;28;20027;-58
2021/12/17 03:38:49;;;;;;;58.38;38.17;;;;;;;5.70;100.00;102846.94;5049499;28;20043;-58
2021/12/17 03:41:21;;;;;;;49.28;36.58;;;;;;;5.72;100.00;102833.03;5031139;28;20039;-58
2021/12/17 03:43:48;;;;;;;49.65;37.33;;;;;;;5.76;100.00;102834.81;5051033;28;20035;-59
2021/12/17 03:46:14;;;;;;;54.05;38.85;;;;;;;5.79;100.00;102828.75;5049213;28;20027;-58
2021/12/17 03:48:41;;;;;;;63.95;38.63;;;;;;;5.86;100.00;102841.91;5048087;28;20083;-59
2021/12/17 03:51:14;;;;;;;54.25;36.20;;;;;;;5.89;100.00;102836.72;5060630;28;20032;-59
2021/12/17 03:53:42;;;;;;;93.85;43.83;;;;;;;5.90;100.00;102835.84;5059940;28;20031;-58
2021/12/17 03:56:08;;;;;;;56.15;36.20;;;;;;;5.94;100.00;102837.63;5032122;28;20020;-58
2021/12/17 03:58:33;;;;;;;71.55;39.80;;;;;;;5.99;100.00;102840.25;5050876;28;20897;-58
2021/12/17 04:00:59;;;;;;;74.57;42.55;;;;;;;6.01;100.00;102847.25;5047745;28;20876;-58
2021/12/17 04:03:24;;;;;;;71.93;45.38;;;;;;;6.04;100.00;102857.72;5048990;28;20063;-58
2021/12/17 04:05:49;;;;;;;57.33;40.63;;;;;;;6.07;100.00;102836.88;5048672;28;21182;-58
2021/12/17 04:08:15;;;;;;;60.78;43.47;;;;;;;6.13;100.00;102846.47;5051995;28;20904;-58
2021/12/17 04:10:44;;;;;;;64.57;43.83;;;;;;;6.14;100.00;102830.84;5047674;28;20876;-58
2021/12/17 04:15:55;;;;;;;63.80;44.20;;;;;;;6.21;100.00;102818.69;5047902;28;20055;-58
2021/12/17 04:18:20;;;;;;;88.57;47.45;;;;;;;6.25;100.00;102824.81;5047539;28;20092;-59
2021/12/17 04:20:45;;;;;;;65.25;41.60;;;;;;;6.30;100.00;102828.31;5048490;28;20044;-59
2021/12/17 04:23:11;;;;;;;57.88;43.28;;;;;;;6.38;100.00;102837.06;5049356;28;20170;-58
2021/12/17 04:25:36;;;;;;;80.78;46.17;;;;;;;6.37;100.00;102828.38;5049892;28;20020;-59
2021/12/17 04:28:02;;;;;;;67.65;44.92;;;;;;;6.41;100.00;102839.69;5050408;28;20020;-59
2021/12/17 04:30:28;;;;;;;75.15;49.38;;;;;;;6.41;100.00;102831.88;5030670;28;20020;-58
2021/12/17 04:32:54;;;;;;;62.50;48.03;;;;;;;6.45;100.00;102828.41;5031315;28;20800;-58
2021/12/17 04:35:20;;;;;;;82.50;50.00;;;;;;;6.49;100.00;102835.41;5047177;28;20028;-58
2021/12/17 04:37:45;;;;;;;69.60;49.13;;;;;;;6.52;100.00;102840.66;5048532;28;20032;-58
2021/12/17 04:40:11;;;;;;;71.32;50.85;;;;;;;6.53;100.00;102842.38;5047929;28;20885;-59
2021/12/17 04:43:43;;;;;;;83.78;51.80;;;;;;;6.54;100.00;102844.13;5046928;28;20028;-59
2021/12/17 04:45:36;;;;;;;105.97;51.20;;;;;;;6.57;100.00;102844.16;5042166;28;20032;-59
2021/12/17 04:58:57;;;;;;;111.55;60.42;;;;;;;6.69;100.00;102831.16;5046789;28;20106;-59
2021/12/17 05:01:22;;;;;;;66.40;50.47;;;;;;;6.70;100.00;102830.28;5047443;28;21057;-58
2021/12/17 05:03:48;;;;;;;106.05;57.05;;;;;;;6.71;100.00;102829.44;5047825;28;20028;-58
2021/12/17 05:06:14;;;;;;;79.57;50.03;;;;;;;6.73;100.00;102830.28;5048211;28;20853;-58
2021/12/17 05:08:39;;;;;;;82.70;48.35;;;;;;;6.76;100.00;102830.31;5047950;28;20892;-59
2021/12/17 05:21:42;;;;;;;91.45;56.20;;;;;;;6.80;100.00;102836.41;5046305;28;20525;-58
2021/12/17 05:24:07;;;;;;;68.63;49.38;;;;;;;6.80;100.00;102837.28;5047473;28;20020;-59
2021/12/17 05:26:33;;;;;;;110.68;57.75;;;;;;;6.50;100.00;102787.53;5046029;28;20034;-59
2021/12/17 05:28:58;;;;;;;102.30;60.08;;;;;;;6.81;100.00;102840.78;5047196;28;20938;-59
2021/12/17 05:31:24;;;;;;;96.13;55.83;;;;;;;6.80;100.00;102837.28;5047394;28;20036;-59
2021/12/17 05:33:50;;;;;;;96.65;56.58;;;;;;;6.82;100.00;102843.41;5045783;28;20032;-59
2021/12/17 05:36:15;;;;;;;106.13;54.08;;;;;;;6.83;100.00;102846.88;5045624;28;20127;-58
2021/12/17 05:38:41;;;;;;;109.85;57.65;;;;;;;6.85;100.00;102850.38;5045736;28;20883;-58
2021/12/17 05:41:06;;;;;;;103.65;59.05;;;;;;;6.85;100.00;102851.28;5047496;28;20882;-58
2021/12/17 05:43:36;;;;;;;136.65;61.90;;;;;;;6.85;100.00;102851.28;5047388;28;20933;-59
2021/12/17 05:46:09;;;;;;;87.90;56.75;;;;;;;6.86;100.00;102841.69;5050559;28;20027;-58
2021/12/17 05:48:35;;;;;;;98.13;57.17;;;;;;;6.85;100.00;102843.44;5048408;28;20045;-58
2021/12/17 05:51:05;;;;;;;91.43;54.88;;;;;;;6.84;100.00;102843.41;5047050;28;20028;-58
2021/12/17 05:53:30;;;;;;;140.23;61.53;;;;;;;6.84;100.00;102846.91;5045005;28;20038;-58
2021/12/17 05:55:56;;;;;;;105.30;58.58;;;;;;;6.83;100.00;102842.53;5046259;28;20040;-58
2021/12/17 05:58:22;;;;;;;105.32;61.42;;;;;;;6.82;100.00;102840.81;5046932;28;20028;-58
2021/12/17 06:00:47;;;;;;;107.53;62.45;;;;;;;6.51;100.00;102791.88;5029675;28;20020;-58
2021/12/17 06:03:13;;;;;;;122.75;62.78;;;;;;;6.82;100.00;102845.16;5046160;28;20884;-59
2021/12/17 06:05:39;;;;;;;127.03;65.07;;;;;;;6.81;100.00;102866.91;5046262;28;20063;-59
2021/12/17 06:08:05;;;;;;;151.02;71.28;;;;;;;6.80;100.00;102852.97;5046799;28;20841;-59
2021/12/17 06:10:30;;;;;;;113.57;63.40;;;;;;;6.78;100.00;102853.84;5045207;28;20958;-59
2021/12/17 06:12:55;;;;;;;83.22;47.85;;;;;;;6.80;100.00;102859.94;5046540;28;20020;-58
2021/12/17 06:15:22;;;;;;;95.80;59.33;;;;;;;6.77;100.00;102863.41;5050489;28;20731;-58
2021/12/17 06:17:49;;;;;;;101.57;56.78;;;;;;;6.75;100.00;102852.09;5046633;28;20836;-59
2021/12/17 06:20:16;;;;;;;99.88;57.53;;;;;;;6.73;100.00;102861.66;5044628;28;20040;-58
2021/12/17 06:22:42;;;;;;;97.60;62.22;;;;;;;6.72;100.00;102870.38;5053634;28;20036;-59
2021/12/17 06:25:09;;;;;;;81.97;50.65;;;;;;;6.59;100.00;102829.38;5046446;28;20043;-59
2021/12/17 06:27:35;;;;;;;88.70;55.78;;;;;;;6.74;100.00;102852.06;5046640;28;20222;-58
2021/12/17 06:30:02;;;;;;;111.85;62.10;;;;;;;6.69;100.00;102859.91;5045012;28;20890;-59
2021/12/17 06:32:28;;;;;;;113.72;66.20;;;;;;;6.70;100.00;102861.63;5029297;28;20895;-59
2021/12/17 06:34:53;;;;;;;99.05;62.40;;;;;;;6.30;100.00;102799.59;5028455;28;20134;-58
2021/12/17 06:37:19;;;;;;;112.10;63.15;;;;;;;6.72;100.00;102862.53;5045496;28;20838;-59
2021/12/17 06:39:45;;;;;;;114.35;66.38;;;;;;;6.73;100.00;102861.66;5028208;28;20911;-59
2021/12/17 06:42:11;;;;;;;112.32;66.40;;;;;;;6.73;100.00;102859.03;5046561;28;20140;-58
2021/12/17 06:44:37;;;;;;;105.68;64.18;;;;;;;6.74;100.00;102862.53;5048545;28;20801;-58
2021/12/17 07:10:53;;;;;;;111.30;56.97;;;;;;;6.76;100.00;102882.56;5049271;28;20194;-58
2021/12/17 07:21:25;;;;;;;103.72;61.78;;;;;;;6.77;100.00;102871.25;5048873;28;20043;-59
2021/12/17 07:34:15;;;;;;;119.00;63.78;;;;;;;6.77;100.00;102873.88;5047066;28;20047;-58
2021/12/17 07:38:35;;;;;;;169.02;67.82;;;;;;;6.62;100.00;102842.44;5055233;28;20228;-58
2021/12/17 07:39:26;;;;;;;168.50;69.35;;;;;;;6.79;100.00;102876.50;5053010;28;20031;-58
2021/12/17 07:41:51;;;;;;;135.30;67.38;;;;;;;6.79;100.00;102877.38;5060804;28;20089;-58
2021/12/17 07:44:17;;;;;;;154.95;69.13;;;;;;;6.77;100.00;102868.63;5053271;28;20039;-58
2021/12/17 07:46:42;;;;;;;212.20;82.28;;;;;;;6.80;100.00;102870.38;5068063;28;20921;-58
2021/12/17 07:49:08;;;;;;;154.85;67.50;;;;;;;6.72;100.00;102849.47;5069143;28;20030;-58
2021/12/17 07:51:33;;;;;;;151.52;69.07;;;;;;;6.81;100.00;102865.19;5069132;28;20023;-58
2021/12/17 07:53:59;;;;;;;173.90;71.60;;;;;;;6.81;100.00;102872.13;5066827;28;20032;-58
2021/12/17 07:56:27;;;;;;;171.18;70.47;;;;;;;6.82;100.00;102868.66;5066904;28;20989;-58
2021/12/17 07:58:52;;;;;;;233.40;78.80;;;;;;;6.81;100.00;102875.63;5067487;28;20024;-58
2021/12/17 08:01:17;;;;;;;146.32;66.70;;;;;;;6.83;100.00;102884.34;5068614;28;20848;-58
2021/12/17 08:03:43;;;;;;;199.10;68.20;;;;;;;6.64;100.00;102841.59;5067358;28;20093;-58
2021/12/17 08:06:09;;;;;;;127.03;59.90;;;;;;;6.86;100.00;102883.50;5068954;28;20055;-58
2021/12/17 08:08:34;;;;;;;141.70;66.32;;;;;;;6.72;100.00;102854.69;5068710;28;20031;-58
2021/12/17 08:11:00;;;;;;;139.85;62.88;;;;;;;6.85;100.00;102881.75;5050670;28;20031;-58
2021/12/17 08:13:31;;;;;;;165.68;69.03;;;;;;;6.86;100.00;102881.75;5067903;28;20027;-58
2021/12/17 08:16:12;;;;;;;216.43;82.70;;;;;;;6.86;100.00;102879.13;5050129;28;20136;-58
2021/12/17 08:29:45;;;;;;;215.20;76.40;;;;;;;6.90;100.00;102887.84;5068486;28;20040;-58
2021/12/17 08:32:11;;;;;;;139.13;62.63;;;;;;;6.81;100.00;102867.78;5068061;28;20032;-57
2021/12/17 08:34:37;;;;;;;175.15;68.82;;;;;;;6.91;100.00;102877.44;5067525;28;20066;-58
2021/12/17 08:37:02;;;;;;;193.40;69.15;;;;;;;6.95;100.00;102887.03;5067242;28;20086;-57
2021/12/17 08:39:31;;;;;;;251.85;82.80;;;;;;;6.95;100.00;102884.41;5067582;28;20931;-57
2021/12/17 08:41:57;;;;;;;236.63;76.75;;;;;;;6.95;100.00;102897.50;5067878;28;20088;-57
2021/12/17 08:44:23;;;;;;;289.80;76.90;;;;;;;6.62;100.00;102843.28;5068160;28;20079;-57
2021/12/17 08:46:49;;;;;;;160.70;62.63;;;;;;;6.94;100.00;102895.72;5067743;28;20231;-57
2021/12/17 08:49:15;;;;;;;156.32;64.63;;;;;;;6.95;100.00;102910.56;5068729;28;20140;-57
2021/12/17 08:51:42;;;;;;;105.85;53.97;;;;;;;6.87;100.00;102898.28;5067490;28;20537;-57
2021/12/17 08:54:08;;;;;;;127.43;61.25;;;;;;;6.95;100.00;102907.06;5067218;28;20034;-58
2021/12/17 08:56:36;;;;;;;140.50;59.22;;;;;;;6.86;100.00;102888.72;5066925;28;20148;-58
2021/12/17 08:59:03;;;;;;;123.45;57.30;;;;;;;6.96;100.00;102909.66;5067685;28;20027;-57
2021/12/17 09:01:29;;;;;;;120.05;56.38;;;;;;;6.99;100.00;102907.09;5068476;28;20088;-57
2021/12/17 09:03:55;;;;;;;112.40;55.08;;;;;;;7.01;100.00;102910.56;5068450;28;20093;-57
2021/12/17 09:06:24;;;;;;;139.95;59.80;;;;;;;7.00;100.00;102915.78;5068886;28;20857;-58
2021/12/17 09:08:54;;;;;;;138.45;61.67;;;;;;;6.98;100.00;102915.78;5069673;28;20089;-58
2021/12/17 09:11:20;;;;;;;107.90;53.17;;;;;;;6.98;100.00;102915.78;5069311;28;20032;-58
2021/12/17 09:13:46;;;;;;;117.47;56.58;;;;;;;6.98;100.00;102921.03;5070526;28;20028;-58
2021/12/17 09:16:11;;;;;;;113.57;56.05;;;;;;;6.78;100.00;102891.28;5051987;28;20104;-57
2021/12/17 09:18:36;;;;;;;117.93;55.42;;;;;;;7.00;100.00;102924.50;5070238;28;20772;-58
2021/12/17 09:21:02;;;;;;;111.95;54.05;;;;;;;6.99;100.00;102933.22;5069842;28;20032;-57
2021/12/17 09:23:27;;;;;;;105.53;48.83;;;;;;;6.99;100.00;102935.84;5069402;28;20039;-57
2021/12/17 09:25:53;;;;;;;107.22;52.10;;;;;;;7.00;100.00;102929.72;5050091;28;20023;-58
2021/12/17 09:28:18;;;;;;;99.70;47.17;;;;;;;6.91;100.00;102919.25;5070388;28;20855;-58
2021/12/17 09:30:43;;;;;;;101.50;48.70;;;;;;;7.00;100.00;102929.72;5069628;28;20028;-58
2021/12/17 09:33:09;;;;;;;115.07;50.38;;;;;;;7.03;100.00;102929.75;5069441;28;20930;-58
2021/12/17 09:35:36;;;;;;;96.45;49.83;;;;;;;7.04;100.00;102941.97;5067675;28;20024;-58
2021/12/17 09:38:02;;;;;;;105.32;46.85;;;;;;;7.06;100.00;102944.59;5069698;28;20024;-57
2021/12/17 09:40:27;;;;;;;95.72;46.80;;;;;;;6.90;100.00;102927.06;5069335;28;20082;-58
2021/12/17 09:42:52;;;;;;;132.40;53.53;;;;;;;7.03;100.00;102955.03;5067540;28;20032;-57
2021/12/17 09:45:18;;;;;;;99.35;50.17;;;;;;;7.01;100.00;102957.63;5068963;28;20031;-57
2021/12/17 09:47:45;;;;;;;88.60;44.78;;;;;;;7.02;100.00;102962.00;5067211;28;20147;-58
2021/12/17 09:50:12;;;;;;;72.50;41.05;;;;;;;7.02;100.00;102953.28;5068727;28;20037;-58
2021/12/17 09:52:37;;;;;;;93.25;45.53;;;;;;;6.87;100.00;102927.03;5067135;28;20896;-58
2021/12/17 09:55:04;;;;;;;80.97;42.33;;;;;;;7.04;100.00;102954.16;5068163;28;20031;-58
2021/12/17 09:57:35;;;;;;;88.32;43.08;;;;;;;7.01;100.00;102952.41;5067226;28;20298;-58
2021/12/17 10:00:12;;;;;;;65.28;39.58;;;;;;;7.03;100.00;102945.44;5051256;28;20027;-58
2021/12/17 10:02:37;;;;;;;91.10;42.30;;;;;;;7.04;100.00;102956.75;5068453;28;20421;-58
2021/12/17 10:05:05;;;;;;;80.75;43.55;;;;;;;7.04;100.00;102955.03;5066886;28;20063;-57
2021/12/17 10:07:33;;;;;;;78.22;38.75;;;;;;;7.02;100.00;102959.38;5064333;28;20925;-58
2021/12/17 10:10:01;;;;;;;78.25;41.13;;;;;;;7.04;100.00;102962.88;5053197;28;20085;-58
2021/12/17 10:12:34;;;;;;;72.93;40.40;;;;;;;7.06;100.00;102955.91;5051341;28;20031;-57
2021/12/17 10:15:10;;;;;;;80.53;40.23;;;;;;;7.07;100.00;102956.78;5054678;28;20089;-57
2021/12/17 10:17:49;;;;;;;81.80;39.70;;;;;;;7.11;100.00;102967.28;5066923;28;20092;-58
2021/12/17 10:20:14;;;;;;;74.53;40.90;;;;;;;6.98;100.00;102936.72;5064704;28;20037;-58
2021/12/17 10:22:44;;;;;;;77.63;39.95;;;;;;;6.76;100.00;102898.22;5057416;28;20534;-58
2021/12/17 10:25:10;;;;;;;68.32;38.90;;;;;;;7.08;100.00;102955.91;5059086;28;20024;-58
2021/12/17 10:27:38;;;;;;;85.93;41.85;;;;;;;7.08;100.00;102959.41;5062086;28;20019;-58
2021/12/17 10:30:18;;;;;;;63.78;39.47;;;;;;;7.10;100.00;102962.91;5063482;28;20043;-58
2021/12/17 10:32:46;;;;;;;68.65;38.53;;;;;;;7.12;100.00;102960.31;5074353;28;20231;-58
2021/12/17 10:35:17;;;;;;;86.47;38.58;;;;;;;6.70;100.00;102879.91;5066488;28;20155;-58
2021/12/17 10:37:55;;;;;;;92.07;42.22;;;;;;;7.14;100.00;102955.94;5067885;28;20031;-58
2021/12/17 10:40:26;;;;;;;79.53;41.97;;;;;;;7.10;100.00;102946.34;5066851;28;20032;-58
2021/12/17 10:43:01;;;;;;;70.47;38.97;;;;;;;7.16;100.00;102957.69;5067860;28;20032;-58
2021/12/17 10:45:30;;;;;;;78.22;40.50;;;;;;;7.18;100.00;102960.34;5062729;28;20059;-58
2021/12/17 10:51:00;;;;;;;66.07;38.08;;;;;;;7.18;100.00;102966.44;5065953;28;20105;-58
2021/12/17 10:53:25;;;;;;;70.40;40.17;;;;;;;7.15;100.00;102958.59;5064892;28;20892;-58
2021/12/17 10:55:53;;;;;;;65.07;34.80;;;;;;;7.15;100.00;102955.09;5061365;28;20046;-58
2021/12/17 10:58:18;;;;;;;95.13;41.35;;;;;;;7.16;100.00;102956.84;5061385;28;20071;-58
2021/12/17 11:01:06;;;;;;;64.53;37.20;;;;;;;7.15;100.00;102957.69;5057069;28;20031;-58
2021/12/17 11:03:39;;;;;;;60.22;38.20;;;;;;;7.15;100.00;102963.81;5077706;28;20150;-58
2021/12/17 11:06:05;;;;;;;73.15;38.95;;;;;;;7.14;100.00;102956.81;5056151;28;20029;-58
2021/12/17 11:08:37;;;;;;;65.93;36.40;;;;;;;7.16;100.00;102956.84;5081619;28;20366;-58
2021/12/17 11:11:08;;;;;;;68.75;39.38;;;;;;;7.19;100.00;102956.84;5057128;28;20048;-58
2021/12/17 11:13:55;;;;;;;78.88;37.95;;;;;;;7.19;100.00;102957.75;5087005;28;20106;-59
2021/12/17 11:16:21;;;;;;;54.92;34.47;;;;;;;7.12;100.00;102945.50;5070830;28;20762;-58
2021/12/17 11:18:48;;;;;;;58.45;35.70;;;;;;;7.24;100.00;102954.25;5050587;28;20028;-58
2021/12/17 11:21:14;;;;;;;61.25;34.67;;;;;;;7.24;100.00;102946.41;5052019;28;20326;-58
2021/12/17 11:23:40;;;;;;;68.03;36.85;;;;;;;7.24;100.00;102939.44;5054050;28;20036;-58
2021/12/17 11:26:05;;;;;;;72.82;35.85;;;;;;;7.30;100.00;102938.59;5051276;28;20064;-58
2021/12/17 11:28:32;;;;;;;66.07;34.50;;;;;;;7.00;100.00;102881.81;5016673;28;20138;-58
2021/12/17 11:30:57;;;;;;;70.78;38.85;;;;;;;7.32;100.00;102929.91;5085740;28;20034;-58
2021/12/17 11:33:23;;;;;;;55.72;33.35;;;;;;;7.33;100.00;102934.25;5066453;28;20784;-58
2021/12/17 11:35:49;;;;;;;65.20;35.75;;;;;;;7.34;100.00;102930.75;5054054;28;20026;-58
2021/12/17 11:38:36;;;;;;;73.15;38.58;;;;;;;7.33;100.00;102925.53;5052239;28;20043;-57
2021/12/17 11:41:16;;;;;;;64.28;34.88;;;;;;;7.35;100.00;102926.41;5072776;28;20498;-58
2021/12/17 11:44:00;;;;;;;71.13;37.88;;;;;;;7.39;100.00;102933.41;5076051;28;20031;-58
2021/12/17 11:46:28;;;;;;;72.75;40.33;;;;;;;7.43;100.00;102924.72;5094394;28;20159;-58
2021/12/17 11:48:58;;;;;;;75.18;40.03;;;;;;;7.42;100.00;102920.34;5094575;28;20107;-58
2021/12/17 11:51:32;;;;;;;72.88;40.28;;;;;;;7.45;100.00;102917.72;5075013;28;20463;-58
2021/12/17 11:54:08;;;;;;;66.15;38.20;;;;;;;7.46;100.00;102924.72;5082533;28;20032;-58
2021/12/17 11:56:44;;;;;;;69.72;40.78;;;;;;;7.48;100.00;102909.88;5094046;28;20028;-58
2021/12/17 11:59:25;;;;;;;78.72;40.97;;;;;;;7.47;100.00;102918.63;5067078;28;20024;-58
2021/12/17 12:02:14;;;;;;;65.35;37.40;;;;;;;7.49;100.00;102916.88;5074034;28;20861;-58
2021/12/17 12:04:41;;;;;;;65.25;40.13;;;;;;;7.53;100.00;102916.03;5064463;28;20032;-58
2021/12/17 12:07:14;;;;;;;74.97;41.63;;;;;;;7.53;100.00;102911.66;5093645;28;20042;-58
2021/12/17 12:09:56;;;;;;;82.80;41.65;;;;;;;7.54;100.00;102910.78;5073805;28;20370;-58
2021/12/17 12:12:22;;;;;;;85.20;44.03;;;;;;;7.56;100.00;102910.78;5072832;28;20040;-58
2021/12/17 12:14:47;;;;;;;83.13;45.50;;;;;;;7.56;100.00;102910.78;5068490;28;20059;-58
2021/12/17 12:17:12;;;;;;;85.60;46.58;;;;;;;7.56;100.00;102916.03;5094015;28;20133;-58
2021/12/17 12:19:48;;;;;;;70.15;45.28;;;;;;;7.53;100.00;102916.03;5093423;28;20413;-58
2021/12/17 12:22:14;;;;;;;71.18;42.58;;;;;;;7.45;100.00;102896.78;5092011;28;20032;-58
2021/12/17 12:24:39;;;;;;;72.28;39.88;;;;;;;7.53;100.00;102905.56;5065654;28;20101;-59
2021/12/17 12:27:05;;;;;;;82.22;46.80;;;;;;;7.52;100.00;102898.56;5049685;28;20080;-59
2021/12/17 12:29:30;;;;;;;88.53;46.28;;;;;;;7.52;100.00;102904.69;5071111;28;20079;-59
2021/12/17 12:32:22;;;;;;;87.03;47.28;;;;;;;7.52;100.00;102912.53;5069753;28;20927;-58
2021/12/17 12:34:47;;;;;;;83.93;47.65;;;;;;;7.53;100.00;102914.28;5067155;28;20086;-58
2021/12/17 12:37:23;;;;;;;81.75;47.63;;;;;;;7.50;100.00;102910.78;5085604;28;20780;-58
2021/12/17 12:39:55;;;;;;;82.43;49.70;;;;;;;7.49;100.00;102914.25;5062878;28;20156;-59
2021/12/17 12:42:35;;;;;;;81.97;42.20;;;;;;;7.48;100.00;102908.16;5059485;28;20023;-59
2021/12/17 12:45:02;;;;;;;89.45;49.17;;;;;;;7.49;100.00;102904.66;5067312;28;20063;-58
2021/12/17 12:47:30;;;;;;;92.43;50.10;;;;;;;7.50;100.00;102911.63;5069135;28;20040;-58
2021/12/17 12:50:08;;;;;;;92.68;51.65;;;;;;;7.52;100.00;102916.88;5059356;28;20091;-59
2021/12/17 12:52:45;;;;;;;88.55;48.58;;;;;;;7.54;100.00;102904.66;5031132;28;20032;-58
2021/12/17 12:55:15;;;;;;;83.15;48.55;;;;;;;7.56;100.00;102902.94;5058198;28;20027;-58
2021/12/17 12:57:49;;;;;;;91.35;49.17;;;;;;;7.56;100.00;102902.94;5068090;28;20035;-58
2021/12/17 13:00:20;;;;;;;91.03;49.05;;;;;;;7.58;100.00;102904.69;5068476;28;20038;-58
2021/12/17 13:02:49;;;;;;;83.60;51.33;;;;;;;7.58;100.00;102895.97;5066771;28;20897;-58
2021/12/17 13:05:14;;;;;;;95.28;49.85;;;;;;;7.60;100.00;102889.00;5068314;28;20027;-58
2021/12/17 13:07:43;;;;;;;87.10;53.42;;;;;;;7.62;100.00;102889.88;5067197;28;20907;-59
2021/12/17 13:10:23;;;;;;;85.05;48.85;;;;;;;7.60;100.00;102886.38;5068192;28;20158;-58
2021/12/17 13:13:03;;;;;;;102.13;52.75;;;;;;;7.59;100.00;102889.88;5049108;28;20131;-58
2021/12/17 13:21:33;;;;;;;94.95;46.28;;;;;;;7.62;100.00;102892.47;5067381;28;20100;-58
2021/12/17 13:24:12;;;;;;;85.78;44.42;;;;;;;7.56;100.00;102895.97;5069734;28;20126;-58
2021/12/17 13:26:45;;;;;;;73.70;40.97;;;;;;;7.33;100.00;102860.16;5073080;28;20035;-58
2021/12/17 13:29:18;;;;;;;75.07;41.65;;;;;;;7.54;100.00;102891.59;5069288;28;20059;-58
2021/12/17 13:31:57;;;;;;;73.97;42.13;;;;;;;7.53;100.00;102889.84;5066667;28;20055;-58
2021/12/17 13:34:40;;;;;;;74.47;43.30;;;;;;;7.52;100.00;102878.50;5066940;28;20924;-58
2021/12/17 13:37:16;;;;;;;89.10;42.50;;;;;;;7.51;100.00;102886.34;5068576;28;20083;-58
2021/12/17 13:39:43;;;;;;;78.95;40.50;;;;;;;7.52;100.00;102885.47;5068284;28;20032;-58
2021/12/17 13:42:15;;;;;;;79.20;42.03;;;;;;;7.49;100.00;102888.97;5051116;28;20399;-58
2021/12/17 13:44:44;;;;;;;83.57;44.15;;;;;;;7.45;100.00;102881.09;5068366;28;20059;-58
2021/12/17 13:47:14;;;;;;;69.20;40.22;;;;;;;7.43;100.00;102880.25;5067093;28;20020;-58
2021/12/17 13:49:41;;;;;;;96.68;44.88;;;;;;;7.48;100.00;102886.34;5067303;28;20034;-58
2021/12/17 13:52:07;;;;;;;78.35;44.33;;;;;;;7.47;100.00;102889.84;5068386;28;20104;-58
2021/12/17 13:54:33;;;;;;;70.38;36.67;;;;;;;7.44;100.00;102880.22;5067913;28;20021;-59
2021/12/17 13:57:00;;;;;;;73.40;40.67;;;;;;;7.28;100.00;102857.53;5067568;28;21028;-58
2021/12/17 13:59:34;;;;;;;78.90;41.08;;;;;;;7.49;100.00;102882.88;5067437;28;20074;-58
2021/12/17 14:02:07;;;;;;;71.70;41.58;;;;;;;7.47;100.00;102880.22;5068377;28;20950;-58
2021/12/17 14:04:32;;;;;;;70.72;40.33;;;;;;;7.49;100.00;102885.47;5066520;28;20042;-57
2021/12/17 14:07:04;;;;;;;63.88;37.65;;;;;;;7.46;100.00;102891.59;5067474;28;20084;-58
2021/12/17 14:09:29;;;;;;;94.15;42.75;;;;;;;7.44;100.00;102892.44;5061474;28;20035;-58
2021/12/17 14:11:57;;;;;;;77.05;39.55;;;;;;;7.44;100.00;102895.91;5057571;28;20097;-58